This is the latest recevied weather packets stored in our database for station/object N6OL. If no packets are shown the sender has not sent any weather packets the latest 10 day(s).
| Time | Temp. | Humidity | Pressure | Rain* | Wind** | Luminosity | Snow |
|---|---|---|---|---|---|---|---|
| 1777612803 | 12.22° C | 84% | 1014.5 hPa | 0 mm | - | 0 W/m² | - |
| 1777611624 | 12.22° C | 83% | 1014.5 hPa | 0 mm | - | 0 W/m² | - |
| 1777610103 | 12.78° C | 82% | 1014.4 hPa | 0 mm | - | 0 W/m² | - |
| 1777609803 | 12.78° C | 82% | 1014.4 hPa | 0 mm | - | 0 W/m² | - |
| 1777606803 | 12.78° C | 82% | 1013.8 hPa | 0 mm | - | 0 W/m² | - |
| 1777606503 | 13.33° C | 82% | 1013.7 hPa | 0 mm | - | 0 W/m² | - |
| 1777605903 | 13.33° C | 82% | 1013.5 hPa | 0 mm | - | 0 W/m² | - |
| 1777605303 | 13.33° C | 81% | 1013.6 hPa | 0 mm | - | 0 W/m² | - |
| 1777604403 | 13.33° C | 80% | 1013.5 hPa | 0 mm | - | 0 W/m² | - |
| 1777603524 | 13.89° C | 79% | 1013.3 hPa | 0 mm | - | 12 W/m² | - |
| 1777599903 | 15.56° C | 73% | 1013.2 hPa | 0 mm | - | 156 W/m² | - |
| 1777599303 | 16.11° C | 71% | 1013.3 hPa | 0 mm | - | 190 W/m² | - |
| 1777598403 | 16.67° C | 68% | 1013.2 hPa | 0 mm | - | 241 W/m² | - |
| 1777593603 | 17.22° C | 69% | 1012.8 hPa | 0 mm | - | 480 W/m² | - |
| 1777592403 | 17.78° C | 69% | 1012.9 hPa | 0 mm | - | 531 W/m² | - |
| 1777591503 | 17.78° C | 67% | 1013 hPa | 0 mm | - | 564 W/m² | - |
| 1777590924 | 18.33° C | 67% | 1013 hPa | 0 mm | - | 591 W/m² | - |
| 1777590003 | 18.33° C | 65% | 1013 hPa | 0 mm | - | 626 W/m² | - |
| 1777589403 | 18.89° C | 65% | 1013.1 hPa | 0 mm | - | 649 W/m² | - |
| 1777588803 | 18.33° C | 66% | 1013.2 hPa | 0 mm | - | 670 W/m² | - |
| 1777588203 | 18.33° C | 66% | 1013.3 hPa | 0 mm | - | 687 W/m² | - |
| 1777587303 | 18.33° C | 65% | 1013.6 hPa | 0 mm | - | 714 W/m² | - |
| 1777587003 | 18.33° C | 67% | 1013.7 hPa | 0 mm | - | 724 W/m² | - |
| 1777586403 | 18.33° C | 67% | 1013.8 hPa | 0 mm | - | 738 W/m² | - |
| 1777584903 | 18.89° C | 64% | 1013.8 hPa | 0 mm | - | 772 W/m² | - |
* Rain latest hour (hover to see other rain measurements)
** Current wind speed in m/s (hover to see current wind gust speed)